Time;durP1;ratioP1;P1;durP2;ratioP2;P2;SDS_P1;SDS_P2;PMS_P1;PMS_P2;Temp;Humidity;BMP_temperature;BMP_pressure;BME280_temperature;BME280_humidity;BME280_pressure;Samples;Min_cycle;Max_cycle;Signal;HPM_P1;HPM_P2
2022/12/26 00:00:30;;;;;;;29.45;19.40;;;10.00;99.90;;;;;;12547658;28;20045;-87
2022/12/26 00:06:32;;;;;;;22.02;17.13;;;10.00;99.90;;;;;;12564289;28;20083;-87
2022/12/26 00:12:34;;;;;;;20.65;16.08;;;10.00;99.90;;;;;;12556188;28;20389;-87
2022/12/26 00:18:37;;;;;;;22.25;16.70;;;10.00;99.90;;;;;;12596546;28;20150;-87
2022/12/26 00:24:38;;;;;;;18.83;15.25;;;10.00;99.90;;;;;;12587723;28;20047;-87
2022/12/26 00:30:40;;;;;;;19.13;14.57;;;10.00;99.90;;;;;;12557180;28;20412;-87
2022/12/26 00:36:42;;;;;;;17.13;12.68;;;10.00;99.90;;;;;;12574353;28;20147;-87
2022/12/26 00:42:44;;;;;;;13.82;11.02;;;10.00;99.90;;;;;;12590235;28;20052;-87
2022/12/26 00:48:46;;;;;;;14.05;11.02;;;10.10;99.90;;;;;;12568831;28;20040;-87
2022/12/26 00:54:48;;;;;;;13.23;10.20;;;10.00;99.90;;;;;;12580237;28;20115;-88
2022/12/26 01:00:50;;;;;;;13.32;10.70;;;10.00;99.90;;;;;;12592135;28;20400;-87
2022/12/26 01:06:52;;;;;;;12.55;9.90;;;9.90;99.90;;;;;;12572118;28;20043;-87
2022/12/26 01:12:54;;;;;;;13.32;10.32;;;10.00;99.90;;;;;;12579069;28;20064;-87
2022/12/26 01:18:56;;;;;;;13.70;10.55;;;9.90;99.90;;;;;;12566408;28;20104;-87
2022/12/26 01:24:58;;;;;;;16.50;11.48;;;9.80;99.90;;;;;;12548094;28;20072;-87
2022/12/26 01:31:01;;;;;;;14.88;10.48;;;9.80;99.90;;;;;;12561961;28;20048;-87
2022/12/26 01:37:03;;;;;;;16.38;11.45;;;9.70;99.90;;;;;;12557275;28;20051;-87
2022/12/26 01:43:13;;;;;;;15.45;10.77;;;9.70;99.90;;;;;;12559725;28;20044;-87
2022/12/26 01:49:30;;;;;;;18.58;11.63;;;9.70;99.90;;;;;;12538685;28;20079;-87
2022/12/26 01:55:32;;;;;;;15.77;11.40;;;9.60;99.90;;;;;;12543548;28;20143;-87
2022/12/26 02:01:38;;;;;;;16.42;11.07;;;9.60;99.90;;;;;;12554279;28;20044;-87
2022/12/26 02:07:43;;;;;;;14.23;10.77;;;9.50;99.90;;;;;;12546489;28;20059;-87
2022/12/26 02:13:44;;;;;;;16.00;11.00;;;9.50;99.90;;;;;;12563935;28;20037;-87
2022/12/26 02:20:04;;;;;;;15.85;11.50;;;9.50;99.90;;;;;;12587656;28;20087;-87
2022/12/26 02:26:37;;;;;;;14.77;10.02;;;9.50;99.90;;;;;;12594120;28;20052;-87
2022/12/26 02:32:57;;;;;;;22.27;11.50;;;9.50;99.90;;;;;;12596398;28;20048;-87
2022/12/26 02:39:13;;;;;;;16.85;11.55;;;9.50;99.90;;;;;;12634942;28;20064;-88
2022/12/26 03:18:55;;;;;;;22.58;15.60;;;9.50;99.90;;;;;;12598535;28;20135;-87
2022/12/26 03:31:26;;;;;;;22.52;14.85;;;9.50;99.90;;;;;;12576510;28;20051;-87
2022/12/26 03:37:46;;;;;;;23.05;14.43;;;9.50;99.90;;;;;;12562760;28;20412;-87
2022/12/26 04:55:09;;;;;;;18.10;12.00;;;9.40;99.90;;;;;;12586047;28;20041;-87
2022/12/26 05:13:57;;;;;;;;;;;9.40;99.90;;;;;;12563091;28;20036;-86
2022/12/26 05:39:04;;;;;;;13.02;9.70;;;9.50;99.90;;;;;;12550771;28;20412;-86
2022/12/26 05:45:06;;;;;;;15.43;9.68;;;9.50;99.90;;;;;;12538057;28;20049;-86
2022/12/26 05:51:08;;;;;;;14.32;9.73;;;9.50;99.90;;;;;;12561221;28;20041;-86
2022/12/26 05:57:10;;;;;;;15.15;10.45;;;9.40;99.90;;;;;;12554383;28;20052;-86
2022/12/26 06:03:12;;;;;;;14.70;10.52;;;9.40;99.90;;;;;;12558329;28;20040;-86
2022/12/26 06:09:14;;;;;;;17.95;11.02;;;9.30;99.90;;;;;;12549743;28;20057;-86
2022/12/26 06:15:16;;;;;;;16.17;11.43;;;9.30;99.90;;;;;;12562576;28;20040;-86
2022/12/26 06:21:19;;;;;;;15.98;11.45;;;9.30;99.90;;;;;;12574897;28;20055;-86
2022/12/26 06:27:21;;;;;;;16.70;11.43;;;9.20;99.90;;;;;;12592474;28;20084;-86
2022/12/26 06:33:23;;;;;;;16.83;11.52;;;9.10;99.90;;;;;;12536205;28;20090;-87
2022/12/26 06:39:24;;;;;;;18.88;12.52;;;9.00;99.90;;;;;;12531438;28;20037;-86
2022/12/26 06:45:26;;;;;;;18.05;12.98;;;9.00;99.90;;;;;;12543070;28;20408;-86
2022/12/26 06:51:28;;;;;;;20.17;13.00;;;9.00;99.90;;;;;;12548726;28;20053;-86
2022/12/26 06:57:30;;;;;;;17.23;12.45;;;8.90;99.90;;;;;;12539515;28;20036;-86
2022/12/26 07:03:32;;;;;;;20.30;13.45;;;8.90;99.90;;;;;;12543844;28;20049;-86
2022/12/26 07:09:33;;;;;;;19.00;12.82;;;9.00;99.90;;;;;;12536757;28;20041;-86
2022/12/26 07:15:35;;;;;;;17.77;12.02;;;8.90;99.90;;;;;;12519350;28;20128;-87
2022/12/26 07:21:37;;;;;;;19.83;12.23;;;8.80;99.90;;;;;;12512842;28;20571;-86
2022/12/26 07:27:41;;;;;;;15.52;10.77;;;8.80;99.90;;;;;;12514694;28;20049;-86
2022/12/26 07:33:47;;;;;;;15.20;10.85;;;8.70;99.90;;;;;;12510820;28;20102;-86
2022/12/26 07:39:49;;;;;;;15.52;10.52;;;8.70;99.90;;;;;;12524069;28;20115;-86
2022/12/26 07:45:59;;;;;;;14.52;10.07;;;8.80;99.90;;;;;;12509912;28;20506;-86
2022/12/26 07:52:01;;;;;;;15.48;10.05;;;8.90;99.90;;;;;;12511411;28;20045;-86
2022/12/26 07:58:03;;;;;;;13.80;9.32;;;8.80;99.90;;;;;;12515080;28;20053;-86
2022/12/26 08:04:04;;;;;;;12.50;9.38;;;8.80;99.90;;;;;;12522079;28;20696;-86
2022/12/26 08:10:06;;;;;;;11.98;9.38;;;8.80;99.90;;;;;;12523162;28;20085;-86
2022/12/26 08:16:10;;;;;;;12.57;8.65;;;8.80;99.90;;;;;;12538244;28;20049;-86
2022/12/26 08:22:12;;;;;;;11.45;8.90;;;8.80;99.90;;;;;;12554429;28;20067;-86
2022/12/26 08:28:14;;;;;;;12.82;9.10;;;8.80;99.90;;;;;;12539790;28;20540;-86
2022/12/26 08:34:16;;;;;;;11.13;9.35;;;8.90;99.90;;;;;;12550019;28;20066;-86
2022/12/26 08:40:18;;;;;;;11.60;9.27;;;8.90;99.90;;;;;;12551334;28;20052;-86
2022/12/26 08:46:40;;;;;;;12.68;10.10;;;9.00;99.90;;;;;;12542500;28;20048;-86
2022/12/26 08:52:42;;;;;;;13.13;9.75;;;9.00;99.90;;;;;;12540039;28;20045;-87
2022/12/26 08:58:44;;;;;;;14.23;10.77;;;9.10;99.90;;;;;;12535582;28;20056;-86
2022/12/26 09:04:46;;;;;;;17.48;11.70;;;9.10;99.90;;;;;;12548270;28;20155;-86
2022/12/26 09:10:48;;;;;;;15.82;12.30;;;9.10;99.90;;;;;;12524583;28;20045;-86
2022/12/26 09:16:51;;;;;;;18.10;13.85;;;9.20;99.90;;;;;;12514281;28;20588;-86
2022/12/26 09:22:54;;;;;;;16.87;12.63;;;9.20;99.90;;;;;;12519785;28;20409;-87
2022/12/26 09:28:56;;;;;;;14.15;11.55;;;9.20;99.90;;;;;;12497815;28;20103;-86
2022/12/26 09:34:58;;;;;;;14.05;11.50;;;9.30;99.90;;;;;;12532969;28;20040;-86
2022/12/26 09:41:22;;;;;;;15.55;10.80;;;9.40;99.90;;;;;;12563057;28;20045;-86
2022/12/26 09:47:32;;;;;;;12.52;10.57;;;9.50;99.90;;;;;;12562278;28;20472;-86
2022/12/26 09:53:38;;;;;;;12.70;9.73;;;9.50;99.90;;;;;;12555870;28;20102;-86
2022/12/26 09:59:57;;;;;;;12.93;9.20;;;9.50;99.90;;;;;;12564839;28;20094;-86
2022/12/26 10:06:30;;;;;;;10.13;8.50;;;9.50;99.90;;;;;;12553394;28;20048;-86
2022/12/26 10:12:40;;;;;;;9.90;7.90;;;9.40;99.90;;;;;;12538065;28;20044;-85
2022/12/26 10:19:01;;;;;;;7.88;6.68;;;9.40;99.90;;;;;;12558966;28;20055;-86
2022/12/26 10:25:22;;;;;;;7.55;5.45;;;9.50;99.90;;;;;;12572461;28;20044;-86
2022/12/26 10:31:41;;;;;;;7.20;4.35;;;9.50;99.90;;;;;;12580824;28;20044;-86
2022/12/26 10:37:42;;;;;;;7.03;4.40;;;9.70;99.90;;;;;;12578379;28;20052;-86
2022/12/26 10:43:44;;;;;;;6.32;3.88;;;9.80;99.90;;;;;;12584839;28;20052;-87
2022/12/26 10:49:47;;;;;;;7.00;5.40;;;9.70;99.90;;;;;;12590184;28;20045;-88
2022/12/26 10:55:49;;;;;;;8.27;4.13;;;9.80;99.90;;;;;;12579113;28;20488;-87
2022/12/26 11:01:51;;;;;;;8.00;3.90;;;9.90;99.90;;;;;;12571509;28;20036;-87
2022/12/26 11:08:03;;;;;;;5.85;3.72;;;9.90;99.90;;;;;;12586170;28;20045;-87
2022/12/26 11:14:20;;;;;;;6.32;2.83;;;10.10;99.90;;;;;;12554467;28;20393;-87
2022/12/26 11:20:26;;;;;;;6.55;2.45;;;10.00;99.90;;;;;;12574035;28;20053;-87
2022/12/26 11:26:28;;;;;;;5.05;2.40;;;10.10;99.90;;;;;;12542404;28;20093;-87
2022/12/26 11:32:30;;;;;;;4.07;2.30;;;10.10;99.90;;;;;;12553494;28;20052;-87
2022/12/26 11:38:43;;;;;;;4.57;2.17;;;10.10;99.90;;;;;;12572948;28;20060;-87
2022/12/26 11:44:51;;;;;;;6.47;2.38;;;10.00;99.90;;;;;;12587110;28;20572;-87
2022/12/26 11:50:53;;;;;;;6.50;2.42;;;9.90;99.90;;;;;;12574689;28;20049;-87
2022/12/26 11:57:15;;;;;;;5.80;2.72;;;10.00;99.90;;;;;;12593840;28;20052;-87
2022/12/26 12:03:33;;;;;;;5.18;2.60;;;10.10;99.90;;;;;;12566639;28;20504;-86
2022/12/26 12:10:05;;;;;;;5.18;2.95;;;10.20;99.90;;;;;;12579637;28;20484;-87
2022/12/26 12:16:31;;;;;;;5.72;2.97;;;10.40;99.90;;;;;;12558626;28;20052;-87
2022/12/26 12:22:55;;;;;;;3.15;2.22;;;10.30;99.90;;;;;;12571308;28;20127;-87
2022/12/26 12:29:28;;;;;;;5.45;2.22;;;10.30;99.90;;;;;;12572024;28;20080;-87
2022/12/26 12:36:11;;;;;;;4.32;2.22;;;10.30;99.90;;;;;;12572078;28;20490;-87
2022/12/26 12:42:39;;;;;;;3.53;2.05;;;10.30;99.90;;;;;;12551099;28;20052;-87
2022/12/26 12:49:16;;;;;;;3.33;1.65;;;10.40;99.90;;;;;;12543249;28;20056;-87
2022/12/26 12:55:22;;;;;;;3.42;1.60;;;10.40;99.90;;;;;;12581326;28;20045;-88
2022/12/26 13:01:31;;;;;;;8.52;2.10;;;10.30;99.90;;;;;;12565718;28;20056;-86
2022/12/26 13:07:39;;;;;;;5.35;1.50;;;10.20;99.90;;;;;;12571884;28;20056;-89
2022/12/26 13:13:55;;;;;;;1.30;0.50;;;9.80;99.90;;;;;;12584696;28;20048;-89
2022/12/26 13:20:49;;;;;;;3.05;0.70;;;8.50;99.90;;;;;;12563442;28;20036;-88
2022/12/26 13:27:15;;;;;;;2.08;1.20;;;8.60;99.90;;;;;;12556824;28;20492;-88
2022/12/26 13:33:16;;;;;;;2.88;1.25;;;8.70;99.90;;;;;;12584179;28;20045;-88
2022/12/26 13:39:24;;;;;;;3.60;1.10;;;8.60;99.90;;;;;;12565519;28;20040;-89
2022/12/26 13:45:46;;;;;;;3.50;1.20;;;8.50;99.90;;;;;;12584935;28;20036;-89
2022/12/26 13:51:50;;;;;;;4.43;1.33;;;8.40;99.90;;;;;;12575131;28;20052;-88
2022/12/26 13:58:26;;;;;;;5.33;1.50;;;8.20;99.90;;;;;;12571548;28;20105;-87
2022/12/26 14:04:43;;;;;;;5.65;1.20;;;7.80;99.90;;;;;;12583859;28;20134;-88
2022/12/26 14:10:48;;;;;;;8.88;1.63;;;7.70;99.90;;;;;;12556725;28;20047;-88
2022/12/26 14:16:55;;;;;;;;;;;7.60;99.90;;;;;;12568668;28;20524;-88
2022/12/26 14:23:14;;;;;;;7.93;0.75;;;7.20;99.90;;;;;;12578497;28;19924;-87
2022/12/26 14:29:33;;;;;;;7.40;1.00;;;6.90;99.90;;;;;;12578969;28;20068;-87
2022/12/26 14:35:43;;;;;;;5.32;1.17;;;6.80;99.90;;;;;;12567411;28;20170;-88
2022/12/26 14:48:27;;;;;;;4.10;0.80;;;6.70;99.90;;;;;;12583715;28;20131;-88
2022/12/26 14:54:35;;;;;;;7.60;1.20;;;6.60;99.90;;;;;;12578923;28;20041;-88
2022/12/26 15:00:38;;;;;;;10.90;1.10;;;6.70;99.90;;;;;;12583821;28;20040;-87
2022/12/26 15:07:01;;;;;;;6.25;1.40;;;6.60;99.90;;;;;;12584322;28;20056;-88
2022/12/26 15:13:40;;;;;;;10.35;1.33;;;6.60;99.90;;;;;;12592497;28;20122;-87
2022/12/26 15:19:56;;;;;;;10.15;1.63;;;6.50;99.90;;;;;;12579207;28;20079;-87
2022/12/26 15:26:35;;;;;;;10.25;1.40;;;6.50;99.90;;;;;;12581102;28;21022;-87
2022/12/26 15:33:00;;;;;;;11.65;1.67;;;6.30;99.90;;;;;;12542810;28;20179;-87
2022/12/26 15:39:41;;;;;;;3.50;1.02;;;6.30;99.90;;;;;;12526439;28;20057;-87
2022/12/26 15:46:00;;;;;;;9.32;1.25;;;6.20;99.90;;;;;;12534549;28;20048;-87
2022/12/26 15:52:42;;;;;;;7.28;1.30;;;6.10;99.90;;;;;;12539641;28;20055;-86
2022/12/26 15:59:02;;;;;;;7.97;1.45;;;6.00;99.90;;;;;;12525444;28;20052;-87
2022/12/26 16:05:10;;;;;;;6.53;1.55;;;6.00;99.90;;;;;;12532732;28;20056;-86
2022/12/26 16:11:22;;;;;;;5.82;1.00;;;6.00;99.90;;;;;;12539913;28;20497;-87
2022/12/26 16:17:24;;;;;;;5.35;0.82;;;6.00;99.90;;;;;;12530489;28;20096;-87
2022/12/26 16:23:30;;;;;;;6.15;1.88;;;6.00;99.90;;;;;;12533406;28;20049;-87
2022/12/26 16:29:35;;;;;;;5.60;2.00;;;6.00;99.90;;;;;;12543647;28;20056;-87
2022/12/26 16:35:39;;;;;;;;;;;5.90;99.90;;;;;;12584590;28;20735;-86
2022/12/26 16:42:05;;;;;;;9.13;1.67;;;5.80;99.90;;;;;;12586802;28;19973;-87
2022/12/26 16:48:08;;;;;;;8.93;1.98;;;5.80;99.90;;;;;;12581146;28;20044;-87
2022/12/26 16:54:16;;;;;;;6.20;1.60;;;5.80;99.90;;;;;;12574524;28;20040;-87
2022/12/26 17:00:20;;;;;;;8.52;2.10;;;5.90;99.90;;;;;;12556973;28;20052;-87
2022/12/26 17:06:37;;;;;;;9.48;1.98;;;5.80;99.90;;;;;;12585585;28;20163;-86
2022/12/26 17:12:39;;;;;;;10.88;2.30;;;5.90;99.90;;;;;;12571285;28;20052;-86
2022/12/26 17:18:48;;;;;;;6.88;1.98;;;5.90;99.90;;;;;;12583872;28;20125;-87
2022/12/26 17:24:51;;;;;;;6.03;1.67;;;5.90;99.90;;;;;;12592149;28;20044;-87
2022/12/26 17:30:53;;;;;;;8.18;2.25;;;5.80;99.90;;;;;;12568020;28;20623;-86
2022/12/26 17:36:55;;;;;;;9.02;2.28;;;5.80;99.90;;;;;;12553417;28;20079;-86
2022/12/26 17:43:21;;;;;;;8.82;1.80;;;5.80;99.90;;;;;;12547433;28;20053;-86
2022/12/26 17:49:23;;;;;;;7.65;1.70;;;5.80;99.90;;;;;;12554624;28;20048;-86
2022/12/26 17:55:26;;;;;;;6.40;1.35;;;5.90;99.90;;;;;;12524440;28;20053;-87
2022/12/26 18:01:28;;;;;;;8.52;1.38;;;5.80;99.90;;;;;;12524551;28;20572;-86
2022/12/26 18:07:30;;;;;;;10.77;1.70;;;5.70;99.90;;;;;;12534959;28;20442;-87
2022/12/26 18:13:33;;;;;;;9.10;1.67;;;5.70;99.90;;;;;;12536171;28;20186;-86
2022/12/26 18:19:34;;;;;;;15.55;2.17;;;5.70;99.90;;;;;;12535818;28;20059;-87
2022/12/26 18:25:37;;;;;;;10.65;2.00;;;5.70;99.90;;;;;;12552967;28;20477;-86
2022/12/26 18:31:38;;;;;;;9.63;1.38;;;5.70;99.90;;;;;;12569036;28;20041;-86
2022/12/26 18:37:46;;;;;;;10.65;1.80;;;5.70;99.90;;;;;;12573662;28;20139;-86
2022/12/26 18:43:48;;;;;;;10.32;1.80;;;5.60;99.90;;;;;;12590731;28;20040;-86
2022/12/26 18:49:50;;;;;;;15.13;2.15;;;5.50;99.90;;;;;;12572716;28;20049;-86
2022/12/26 18:55:52;;;;;;;14.65;2.10;;;5.40;99.90;;;;;;12575563;28;20041;-86
2022/12/26 19:01:54;;;;;;;9.25;1.80;;;5.50;99.90;;;;;;12575027;28;20485;-86
2022/12/26 19:07:57;;;;;;;9.02;1.83;;;5.40;99.90;;;;;;12579781;28;20060;-86
2022/12/26 19:13:59;;;;;;;8.23;1.20;;;5.40;99.90;;;;;;12575390;28;20045;-86
2022/12/26 19:20:01;;;;;;;8.52;1.73;;;5.40;99.90;;;;;;12581462;28;20124;-86
2022/12/26 19:26:11;;;;;;;7.50;1.75;;;5.30;99.90;;;;;;12597309;28;20055;-87
2022/12/26 19:32:13;;;;;;;13.60;1.85;;;5.30;99.90;;;;;;12591058;28;20178;-86
2022/12/26 19:38:14;;;;;;;9.27;1.33;;;5.20;99.90;;;;;;12588533;28;20065;-86
2022/12/26 19:44:16;;;;;;;6.05;1.60;;;5.10;99.90;;;;;;12576293;28;20037;-86
2022/12/26 19:50:18;;;;;;;13.52;1.60;;;5.10;99.90;;;;;;12562056;28;20052;-86
2022/12/26 19:56:25;;;;;;;15.25;1.60;;;4.90;99.90;;;;;;12587466;28;20050;-86
2022/12/26 20:02:27;;;;;;;8.40;1.67;;;4.90;99.90;;;;;;12573971;28;20044;-86
2022/12/26 20:08:29;;;;;;;8.80;1.50;;;4.70;99.90;;;;;;12556618;28;20099;-86
2022/12/26 20:14:31;;;;;;;11.20;1.88;;;4.60;99.90;;;;;;12569487;28;20504;-87
2022/12/26 20:20:33;;;;;;;10.85;1.40;;;4.60;99.90;;;;;;12563380;28;20519;-85
2022/12/26 20:26:35;;;;;;;10.20;1.90;;;4.50;99.90;;;;;;12584139;28;20048;-86
2022/12/26 20:32:36;;;;;;;11.05;2.35;;;4.60;99.90;;;;;;12573818;28;20044;-86
2022/12/26 20:38:39;;;;;;;7.22;1.30;;;4.60;99.90;;;;;;12584048;28;20093;-86
2022/12/26 20:44:42;;;;;;;8.18;1.70;;;4.60;99.90;;;;;;12585852;28;20041;-84
2022/12/26 20:50:43;;;;;;;17.88;1.90;;;4.70;99.90;;;;;;12558047;28;20044;-85
2022/12/26 20:56:45;;;;;;;14.25;2.53;;;4.50;99.90;;;;;;12589776;28;20056;-85
2022/12/26 21:02:47;;;;;;;9.50;1.67;;;4.40;99.90;;;;;;12583702;28;20093;-85
2022/12/26 21:08:51;;;;;;;6.80;1.33;;;4.30;99.90;;;;;;12569282;28;20140;-84
2022/12/26 21:14:52;;;;;;;8.93;1.70;;;4.10;99.90;;;;;;12572258;28;20048;-84
2022/12/26 21:20:54;;;;;;;11.10;2.05;;;4.00;99.90;;;;;;12569430;28;20063;-84
2022/12/26 21:26:56;;;;;;;8.25;2.03;;;3.90;99.90;;;;;;12590911;28;20052;-84
2022/12/26 21:32:58;;;;;;;12.80;2.58;;;3.80;99.90;;;;;;12576531;28;20041;-85
2022/12/26 21:39:05;;;;;;;6.78;2.03;;;3.80;99.90;;;;;;12583555;28;20045;-84
2022/12/26 21:45:07;;;;;;;6.97;1.85;;;3.80;99.90;;;;;;12576902;28;20044;-85
2022/12/26 21:51:09;;;;;;;6.68;1.90;;;3.80;99.90;;;;;;12579498;28;20051;-84
2022/12/26 21:57:11;;;;;;;7.90;2.10;;;4.00;99.90;;;;;;12564465;28;20048;-84
2022/12/26 22:09:33;;;;;;;4.47;1.65;;;4.00;99.90;;;;;;12572673;28;20052;-85
2022/12/26 22:22:01;;;;;;;10.07;1.67;;;3.70;99.90;;;;;;12584317;28;20500;-84
2022/12/26 22:28:03;;;;;;;3.65;1.30;;;3.60;99.90;;;;;;12582266;28;20052;-84
2022/12/26 22:34:08;;;;;;;3.30;1.35;;;3.60;99.90;;;;;;12512427;28;20048;-84
2022/12/26 22:40:10;;;;;;;6.40;1.63;;;3.60;99.90;;;;;;12490637;28;20110;-84
2022/12/26 22:46:12;;;;;;;10.32;1.70;;;3.40;99.90;;;;;;12490650;28;20049;-84
2022/12/26 22:52:14;;;;;;;8.95;1.90;;;3.30;99.90;;;;;;12495740;28;20092;-84
2022/12/26 22:58:17;;;;;;;4.15;1.52;;;3.20;99.90;;;;;;12478482;28;20064;-85
2022/12/26 23:04:19;;;;;;;6.85;1.88;;;3.30;99.90;;;;;;12507030;28;20504;-84
2022/12/26 23:10:23;;;;;;;6.57;1.58;;;3.30;99.90;;;;;;12502989;28;20409;-84
2022/12/26 23:16:46;;;;;;;5.47;1.80;;;3.20;99.90;;;;;;12493146;28;20124;-84
2022/12/26 23:22:51;;;;;;;9.35;1.48;;;3.20;99.90;;;;;;12482266;28;20045;-85
2022/12/26 23:35:13;;;;;;;7.43;1.83;;;3.20;99.90;;;;;;12494130;28;20060;-84
2022/12/26 23:41:15;;;;;;;6.53;1.65;;;3.30;99.90;;;;;;12491383;28;20053;-84
2022/12/26 23:47:17;;;;;;;8.20;1.65;;;3.30;99.90;;;;;;12509632;28;20053;-84
2022/12/26 23:53:19;;;;;;;9.93;2.42;;;3.30;99.90;;;;;;12494615;28;20094;-84
2022/12/26 23:59:20;;;;;;;10.70;1.95;;;3.40;99.90;;;;;;12510826;28;20283;-84
